Time;durP1;ratioP1;P1;durP2;ratioP2;P2;SDS_P1;SDS_P2;PMS_P1;PMS_P2;Temp;Humidity;BMP_temperature;BMP_pressure;BME280_temperature;BME280_humidity;BME280_pressure;Samples;Min_cycle;Max_cycle;Signal;HPM_P1;HPM_P2
2022/01/16 00:00:51;;;;;;;;;;;;;;;20.24;42.00;101921.78;5028335;28;5276;-64
2022/01/16 00:06:03;;;;;;;;;;;;;;;20.33;41.90;101923.78;5025447;28;6258;-64
2022/01/16 00:08:29;;;;;;;;;;;;;;;20.32;41.87;101922.31;5029167;28;3990;-63
2022/01/16 00:10:55;;;;;;;;;;;;;;;20.28;42.12;101922.03;5026707;28;4112;-64
2022/01/16 00:13:23;;;;;;;;;;;;;;;20.27;42.07;101926.28;5029482;28;4251;-64
2022/01/16 00:15:49;;;;;;;;;;;;;;;20.28;42.26;101922.78;5028863;28;4319;-64
2022/01/16 00:18:25;;;;;;;;;;;;;;;20.27;42.34;101915.53;5029753;28;4449;-64
2022/01/16 00:20:52;;;;;;;;;;;;;;;20.25;42.46;101929.03;5026392;28;5271;-64
2022/01/16 00:23:24;;;;;;;;;;;;;;;20.30;42.49;101922.16;5024308;28;4248;-64
2022/01/16 00:25:54;;;;;;;;;;;;;;;20.31;42.63;101909.28;5026408;28;4280;-64
2022/01/16 00:28:21;;;;;;;;;;;;;;;20.25;42.73;101917.53;5028603;28;4303;-64
2022/01/16 00:30:47;;;;;;;;;;;;;;;20.43;42.64;101921.56;5026291;28;4197;-64
2022/01/16 00:33:13;;;;;;;;;;;;;;;20.32;43.04;101916.56;5029319;28;5528;-64
2022/01/16 00:35:40;;;;;;;;;;;;;;;20.35;42.92;101941.19;5028397;28;4267;-64
2022/01/16 00:38:06;;;;;;;;;;;;;;;20.28;43.24;101942.16;5028287;28;4271;-64
2022/01/16 00:40:32;;;;;;;;;;;;;;;20.26;43.45;101936.28;5027125;28;4256;-64
2022/01/16 00:42:59;;;;;;;;;;;;;;;20.29;43.33;101935.03;5030381;28;4266;-64
2022/01/16 00:45:25;;;;;;;;;;;;;;;20.27;43.56;101921.28;5029439;28;4188;-64
2022/01/16 00:47:52;;;;;;;;;;;;;;;20.25;43.61;101914.66;5027926;28;4241;-64
2022/01/16 00:50:18;;;;;;;;;;;;;;;20.28;43.55;101896.91;5026137;28;5316;-64
2022/01/16 00:52:44;;;;;;;;;;;;;;;20.29;43.81;101866.78;5025933;28;5330;-65
2022/01/16 00:55:11;;;;;;;;;;;;;;;20.33;43.83;101885.66;5028587;28;5071;-64
2022/01/16 00:57:37;;;;;;;;;;;;;;;20.27;43.98;101894.63;5027057;28;4202;-64
2022/01/16 01:00:04;;;;;;;;;;;;;;;20.30;43.78;101902.78;5029478;28;4480;-64
2022/01/16 01:02:30;;;;;;;;;;;;;;;20.29;44.07;101889.00;5027461;28;4365;-64
2022/01/16 01:04:57;;;;;;;;;;;;;;;20.36;44.07;101893.03;5028547;28;4579;-64
2022/01/16 01:07:23;;;;;;;;;;;;;;;20.31;44.07;101892.03;5030018;28;5259;-64
2022/01/16 01:09:49;;;;;;;;;;;;;;;20.30;44.20;101893.41;5028542;28;4177;-64
2022/01/16 01:12:51;;;;;;;;;;;;;;;20.27;44.22;101886.00;5028186;28;6409;-64
2022/01/16 01:15:26;;;;;;;;;;;;;;;20.25;44.43;101878.00;5028397;28;5294;-64
2022/01/16 01:17:52;;;;;;;;;;;;;;;20.31;44.38;101863.25;5025559;28;5407;-64
2022/01/16 01:20:19;;;;;;;;;;;;;;;20.30;44.31;101867.53;5025783;28;4277;-64
2022/01/16 01:22:46;;;;;;;;;;;;;;;20.27;44.47;101863.00;5023722;28;4195;-64
2022/01/16 01:25:13;;;;;;;;;;;;;;;20.23;44.69;101852.00;5027047;28;4181;-64
2022/01/16 01:27:41;;;;;;;;;;;;;;;20.34;44.49;101856.28;5027828;28;4228;-64
2022/01/16 01:30:09;;;;;;;;;;;;;;;20.36;44.45;101865.00;5027273;28;4074;-63
2022/01/16 01:32:37;;;;;;;;;;;;;;;20.30;44.55;101861.75;5029352;28;4171;-64
2022/01/16 01:35:04;;;;;;;;;;;;;;;20.29;44.67;101843.00;5027479;28;4222;-64
2022/01/16 01:37:30;;;;;;;;;;;;;;;20.35;44.69;101854.88;5028376;28;4258;-63
2022/01/16 01:39:57;;;;;;;;;;;;;;;20.33;44.47;101860.50;5025306;28;4419;-64
2022/01/16 01:42:30;;;;;;;;;;;;;;;20.25;44.73;101860.00;5029618;28;4264;-63
2022/01/16 01:53:13;;;;;;;;;;;;;;;20.23;44.95;101736.22;5026108;28;4244;-63
2022/01/16 01:55:42;;;;;;;;;;;;;;;20.25;44.90;101719.81;5028132;28;4236;-64
2022/01/16 01:58:09;;;;;;;;;;;;;;;20.28;44.74;101735.81;5026641;28;5571;-63
2022/01/16 02:00:36;;;;;;;;;;;;;;;20.35;44.80;101765.72;5028918;28;4056;-65
2022/01/16 02:03:15;;;;;;;;;;;;;;;20.34;44.78;101764.22;5032778;28;4249;-64
2022/01/16 02:05:42;;;;;;;;;;;;;;;20.28;45.17;101772.47;5031633;28;4191;-64
2022/01/16 02:08:08;;;;;;;;;;;;;;;20.28;44.91;101778.97;5032488;28;4221;-64
2022/01/16 02:10:35;;;;;;;;;;;;;;;20.33;44.97;101767.72;5031710;28;4266;-65
2022/01/16 02:13:04;;;;;;;;;;;;;;;20.29;45.00;101763.22;5032238;28;4174;-64
2022/01/16 02:31:57;;;;;;;;;;;;;;;20.32;44.81;101769.84;5028214;28;4163;-64
2022/01/16 02:36:59;;;;;;;;;;;;;;;20.21;44.83;101774.22;5039180;28;4138;-64
2022/01/16 02:39:26;;;;;;;;;;;;;;;20.32;45.06;101778.47;5033169;28;4258;-65
2022/01/16 02:41:54;;;;;;;;;;;;;;;20.26;44.89;101770.22;5031700;28;4460;-64
2022/01/16 02:44:29;;;;;;;;;;;;;;;20.26;45.03;101767.34;5029600;28;4295;-64
2022/01/16 02:46:55;;;;;;;;;;;;;;;20.21;45.24;101767.72;5033084;28;4453;-64
2022/01/16 02:49:22;;;;;;;;;;;;;;;20.28;45.04;101755.22;5028956;28;5475;-64
2022/01/16 02:51:48;;;;;;;;;;;;;;;20.27;45.02;101751.59;5029366;28;5991;-64
2022/01/16 02:54:15;;;;;;;;;;;;;;;20.25;45.07;101756.47;5029776;28;4144;-64
2022/01/16 02:56:43;;;;;;;;;;;;;;;20.20;45.22;101738.22;5031132;28;4216;-64
2022/01/16 02:59:09;;;;;;;;;;;;;;;20.23;45.02;101736.22;5032485;28;4415;-64
2022/01/16 03:01:36;;;;;;;;;;;;;;;20.22;45.25;101735.44;5030027;28;5290;-64
2022/01/16 03:04:02;;;;;;;;;;;;;;;20.24;45.31;101731.94;5032308;28;4111;-64
2022/01/16 03:06:29;;;;;;;;;;;;;;;20.25;45.23;101707.56;5029587;28;4312;-64
2022/01/16 03:08:55;;;;;;;;;;;;;;;20.24;45.16;101714.69;5030322;28;4199;-64
2022/01/16 03:11:35;;;;;;;;;;;;;;;20.20;45.28;101723.84;5029736;28;4164;-64
2022/01/16 03:14:04;;;;;;;;;;;;;;;20.26;45.25;101717.69;5030961;28;4274;-64
2022/01/16 03:16:31;;;;;;;;;;;;;;;20.26;45.14;101701.19;5032028;28;4296;-64
2022/01/16 03:21:55;;;;;;;;;;;;;;;20.24;45.09;101691.69;5028620;28;4218;-64
2022/01/16 03:24:22;;;;;;;;;;;;;;;20.19;45.24;101684.19;5030613;28;4090;-64
2022/01/16 03:26:48;;;;;;;;;;;;;;;20.20;45.20;101663.44;5029960;28;4212;-64
2022/01/16 03:29:14;;;;;;;;;;;;;;;20.22;45.06;101666.41;5031064;28;4106;-64
2022/01/16 03:31:41;;;;;;;;;;;;;;;20.17;45.14;101675.44;5028375;28;4202;-64
2022/01/16 03:34:07;;;;;;;;;;;;;;;20.16;45.17;101668.19;5034635;28;4057;-64
2022/01/16 03:36:34;;;;;;;;;;;;;;;20.18;45.10;101659.66;5029144;28;4172;-65
2022/01/16 03:39:00;;;;;;;;;;;;;;;20.16;45.14;101650.94;5031796;28;4179;-64
2022/01/16 03:41:27;;;;;;;;;;;;;;;20.25;45.04;101652.94;5031025;28;4339;-64
2022/01/16 03:44:01;;;;;;;;;;;;;;;20.20;45.13;101636.78;5029658;28;4372;-64
2022/01/16 03:46:34;;;;;;;;;;;;;;;20.22;45.18;101628.28;5030274;28;4264;-65
2022/01/16 03:49:04;;;;;;;;;;;;;;;20.16;45.29;101622.94;5032809;28;4331;-64
2022/01/16 03:51:30;;;;;;;;;;;;;;;20.19;45.28;101620.94;5029554;28;4796;-64
2022/01/16 03:53:57;;;;;;;;;;;;;;;20.16;45.33;101617.19;5026085;28;4210;-63
2022/01/16 03:56:23;;;;;;;;;;;;;;;20.28;45.03;101628.66;5031783;28;4054;-64
2022/01/16 03:58:49;;;;;;;;;;;;;;;20.18;45.24;101614.44;5028774;28;4894;-65
2022/01/16 04:01:16;;;;;;;;;;;;;;;20.16;45.05;101599.94;5029204;28;4276;-64
2022/01/16 04:03:42;;;;;;;;;;;;;;;20.25;44.91;101595.41;5030052;28;4388;-64
2022/01/16 04:06:09;;;;;;;;;;;;;;;20.24;45.07;101588.88;5028214;28;4092;-65
2022/01/16 04:08:35;;;;;;;;;;;;;;;20.21;45.02;101590.16;5026234;28;5517;-64
2022/01/16 04:11:02;;;;;;;;;;;;;;;20.19;45.13;101584.28;5030481;28;4443;-64
2022/01/16 04:13:30;;;;;;;;;;;;;;;20.13;45.31;101588.94;5029265;28;4023;-64
2022/01/16 04:15:57;;;;;;;;;;;;;;;20.19;45.04;101572.78;5028599;28;4297;-64
2022/01/16 04:18:23;;;;;;;;;;;;;;;20.18;44.88;101567.66;5028146;28;4255;-64
2022/01/16 04:20:49;;;;;;;;;;;;;;;20.21;45.04;101560.66;5029918;28;4350;-64
2022/01/16 04:23:16;;;;;;;;;;;;;;;20.20;44.92;101562.03;5029023;28;4419;-64
2022/01/16 04:25:42;;;;;;;;;;;;;;;20.19;44.92;101563.41;5027712;28;5351;-64
2022/01/16 04:28:08;;;;;;;;;;;;;;;20.18;44.83;101556.16;5027079;28;4590;-64
2022/01/16 04:30:35;;;;;;;;;;;;;;;20.23;44.94;101557.91;5028632;28;5387;-64
2022/01/16 04:33:01;;;;;;;;;;;;;;;20.28;44.97;101553.88;5029976;28;4172;-64
2022/01/16 04:35:27;;;;;;;;;;;;;;;19.76;44.01;101555.88;5028090;28;4312;-64
2022/01/16 04:37:54;;;;;;;;;;;;;;;19.79;45.17;101556.75;5024710;28;4190;-64
2022/01/16 04:40:40;;;;;;;;;;;;;;;19.97;45.21;101552.09;5028370;28;4388;-64
2022/01/16 04:45:51;;;;;;;;;;;;;;;20.19;44.22;101540.41;5009613;28;4758;-64
2022/01/16 04:48:17;;;;;;;;;;;;;;;20.21;44.17;101534.78;5029143;28;4236;-64
2022/01/16 04:50:44;;;;;;;;;;;;;;;20.18;44.25;101533.91;5012674;28;4218;-64
2022/01/16 04:53:10;;;;;;;;;;;;;;;20.18;44.22;101533.91;5008382;28;4330;-64
2022/01/16 04:55:36;;;;;;;;;;;;;;;20.17;44.28;101520.16;5009584;28;4416;-63
2022/01/16 04:58:03;;;;;;;;;;;;;;;20.20;44.35;101524.63;5009379;28;4274;-64
2022/01/16 05:00:29;;;;;;;;;;;;;;;20.28;44.19;101525.13;5008372;28;4286;-64
2022/01/16 05:02:55;;;;;;;;;;;;;;;20.20;44.35;101524.63;5010947;28;4151;-64
2022/01/16 05:05:22;;;;;;;;;;;;;;;20.15;44.66;101528.66;5010008;28;4156;-64
2022/01/16 05:07:48;;;;;;;;;;;;;;;20.18;44.54;101527.41;5026494;28;6478;-64
2022/01/16 05:10:14;;;;;;;;;;;;;;;20.20;44.49;101531.16;5029991;28;5325;-64
2022/01/16 05:12:44;;;;;;;;;;;;;;;20.20;44.53;101530.38;5028209;28;5348;-64
2022/01/16 05:17:55;;;;;;;;;;;;;;;20.24;44.48;101516.25;5027259;28;4184;-64
2022/01/16 05:20:22;;;;;;;;;;;;;;;20.18;44.57;101510.13;5025961;28;4081;-64
2022/01/16 05:22:48;;;;;;;;;;;;;;;20.19;44.65;101505.91;5027531;28;4216;-64
2022/01/16 05:25:16;;;;;;;;;;;;;;;20.11;44.67;101500.41;5029350;28;4255;-64
2022/01/16 05:27:43;;;;;;;;;;;;;;;20.13;44.76;101485.41;5029286;28;5266;-63
2022/01/16 05:30:09;;;;;;;;;;;;;;;20.21;44.62;101497.41;5026835;28;5574;-64
2022/01/16 05:32:35;;;;;;;;;;;;;;;20.15;44.72;101492.03;5026668;28;4231;-63
2022/01/16 05:35:06;;;;;;;;;;;;;;;20.14;44.75;101481.19;5032236;28;4324;-64
2022/01/16 05:37:32;;;;;;;;;;;;;;;20.20;44.50;101478.63;5035879;28;4170;-64
2022/01/16 05:39:58;;;;;;;;;;;;;;;20.23;44.67;101486.00;5026679;28;4043;-64
2022/01/16 05:42:25;;;;;;;;;;;;;;;20.22;44.72;101487.38;5033794;28;4207;-64
2022/01/16 05:44:51;;;;;;;;;;;;;;;20.17;44.88;101479.91;5035751;28;4298;-64
2022/01/16 05:47:17;;;;;;;;;;;;;;;20.14;45.02;101481.19;5037048;28;4169;-64
2022/01/16 05:49:44;;;;;;;;;;;;;;;20.15;45.02;101482.66;5033216;28;4288;-64
2022/01/16 05:52:18;;;;;;;;;;;;;;;20.18;44.92;101478.50;5033957;28;4249;-64
2022/01/16 05:54:45;;;;;;;;;;;;;;;20.14;45.09;101479.03;5031042;28;4353;-64
2022/01/16 05:57:12;;;;;;;;;;;;;;;20.15;45.04;101476.91;5035730;28;5456;-64
2022/01/16 05:59:40;;;;;;;;;;;;;;;20.15;44.85;101469.03;5033767;28;4388;-64
2022/01/16 06:02:07;;;;;;;;;;;;;;;20.22;44.77;101470.13;5032488;28;3987;-64
2022/01/16 06:04:33;;;;;;;;;;;;;;;20.28;44.69;101470.47;5035385;28;5314;-64
2022/01/16 06:07:00;;;;;;;;;;;;;;;20.20;44.90;101467.13;5035920;28;5262;-63
2022/01/16 06:09:26;;;;;;;;;;;;;;;20.13;45.00;101479.66;5036308;28;4423;-63
2022/01/16 06:11:53;;;;;;;;;;;;;;;20.19;44.97;101468.50;5034516;28;5654;-64
2022/01/16 06:14:20;;;;;;;;;;;;;;;20.17;45.06;101468.41;5031918;28;4330;-64
2022/01/16 06:16:47;;;;;;;;;;;;;;;20.15;45.12;101453.91;5034392;28;5070;-64
2022/01/16 06:19:13;;;;;;;;;;;;;;;20.14;45.00;101461.78;5035141;28;4321;-64
2022/01/16 06:21:39;;;;;;;;;;;;;;;20.12;44.90;101455.91;5035360;28;4188;-64
2022/01/16 06:24:06;;;;;;;;;;;;;;;20.16;44.95;101449.63;5036575;28;4197;-64
2022/01/16 06:26:32;;;;;;;;;;;;;;;20.12;44.98;101443.69;5032931;28;5532;-64
2022/01/16 06:28:59;;;;;;;;;;;;;;;20.13;44.91;101445.91;5036316;28;4154;-64
2022/01/16 06:31:25;;;;;;;;;;;;;;;20.18;44.93;101441.13;5034245;28;4255;-64
2022/01/16 06:33:51;;;;;;;;;;;;;;;20.23;44.86;101442.88;5032809;28;5314;-64
2022/01/16 06:36:18;;;;;;;;;;;;;;;20.24;44.78;101438.59;5033990;28;4181;-64
2022/01/16 06:38:45;;;;;;;;;;;;;;;20.18;45.02;101452.63;5040278;28;4334;-64
2022/01/16 06:41:12;;;;;;;;;;;;;;;20.13;45.13;101445.91;5041599;28;4224;-64
2022/01/16 06:43:38;;;;;;;;;;;;;;;20.07;45.06;101439.81;5035454;28;4237;-65
2022/01/16 06:46:04;;;;;;;;;;;;;;;20.16;45.06;101446.75;5034574;28;5284;-64
2022/01/16 06:48:31;;;;;;;;;;;;;;;20.10;44.99;101444.31;5030681;28;4267;-64
2022/01/16 06:50:57;;;;;;;;;;;;;;;20.03;45.16;101451.09;5032332;28;5265;-64
2022/01/16 06:53:24;;;;;;;;;;;;;;;20.15;45.00;101445.28;5032542;28;5435;-64
2022/01/16 06:55:50;;;;;;;;;;;;;;;20.08;45.08;101450.69;5034989;28;4530;-64
2022/01/16 06:58:16;;;;;;;;;;;;;;;20.11;45.07;101454.41;5030230;28;5528;-65
2022/01/16 07:00:43;;;;;;;;;;;;;;;20.03;45.28;101454.72;5030597;28;4233;-64
2022/01/16 07:03:09;;;;;;;;;;;;;;;20.06;45.16;101444.81;5031348;28;4704;-64
2022/01/16 07:05:36;;;;;;;;;;;;;;;20.09;45.26;101451.44;5032783;28;4308;-64
2022/01/16 07:08:02;;;;;;;;;;;;;;;20.07;45.22;101463.56;5029652;28;4594;-64
2022/01/16 07:10:29;;;;;;;;;;;;;;;20.00;45.27;101466.72;5030993;28;4264;-64
2022/01/16 07:12:55;;;;;;;;;;;;;;;20.11;45.13;101470.91;5029499;28;4237;-64
2022/01/16 07:15:21;;;;;;;;;;;;;;;20.08;45.15;101473.66;5031855;28;4601;-64
2022/01/16 07:17:48;;;;;;;;;;;;;;;20.12;45.13;101475.31;5033461;28;5392;-64
2022/01/16 07:20:15;;;;;;;;;;;;;;;20.02;45.21;101478.31;5037628;28;4150;-64
2022/01/16 07:22:42;;;;;;;;;;;;;;;20.06;45.13;101476.44;5035685;28;5282;-64
2022/01/16 07:25:09;;;;;;;;;;;;;;;20.07;45.23;101465.69;5033842;28;4014;-64
2022/01/16 07:27:35;;;;;;;;;;;;;;;20.09;45.02;101460.81;5048928;28;4069;-64
2022/01/16 07:30:02;;;;;;;;;;;;;;;20.13;45.42;101459.53;5032062;28;4241;-63
2022/01/16 07:32:29;;;;;;;;;;;;;;;20.12;45.56;101470.28;5031010;28;4145;-63
2022/01/16 07:34:55;;;;;;;;;;;;;;;20.11;45.86;101470.91;5029650;28;4209;-63
2022/01/16 07:37:21;;;;;;;;;;;;;;;20.14;45.67;101481.19;5025778;28;4223;-63
2022/01/16 07:39:48;;;;;;;;;;;;;;;20.20;45.56;101490.13;5029907;28;4171;-63
2022/01/16 07:42:14;;;;;;;;;;;;;;;20.17;45.47;101482.78;5024479;28;4183;-63
2022/01/16 07:44:40;;;;;;;;;;;;;;;20.11;45.73;101486.03;5026589;28;4379;-63
2022/01/16 07:47:07;;;;;;;;;;;;;;;20.21;45.56;101489.50;5026565;28;4236;-63
2022/01/16 07:49:33;;;;;;;;;;;;;;;20.12;45.84;101473.16;5028911;28;4282;-65
2022/01/16 07:51:59;;;;;;;;;;;;;;;20.16;45.78;101484.13;5026678;28;4257;-63
2022/01/16 07:54:26;;;;;;;;;;;;;;;20.12;46.07;101478.19;5027550;28;4163;-64
2022/01/16 07:56:52;;;;;;;;;;;;;;;20.11;46.04;101465.91;5028094;28;5346;-64
2022/01/16 07:59:18;;;;;;;;;;;;;;;20.17;46.06;101479.91;5027519;28;4274;-65
2022/01/16 08:01:45;;;;;;;;;;;;;;;20.18;45.96;101482.16;5026906;28;4406;-63
2022/01/16 08:04:11;;;;;;;;;;;;;;;20.14;46.23;101470.41;5026045;28;4208;-63
2022/01/16 08:06:38;;;;;;;;;;;;;;;20.09;45.81;101457.94;5023970;28;4293;-64
2022/01/16 08:09:04;;;;;;;;;;;;;;;20.15;45.98;101451.03;5022752;28;4088;-63
2022/01/16 08:11:30;;;;;;;;;;;;;;;20.07;46.21;101454.94;5021866;28;4188;-63
2022/01/16 08:13:57;;;;;;;;;;;;;;;20.19;45.97;101442.63;5009296;28;4187;-64
2022/01/16 08:16:23;;;;;;;;;;;;;;;20.15;45.94;101456.78;5023735;28;5505;-63
2022/01/16 08:18:49;;;;;;;;;;;;;;;20.15;45.96;101471.91;5023736;28;5196;-63
2022/01/16 08:21:17;;;;;;;;;;;;;;;20.22;45.96;101467.25;5022742;28;4352;-63
2022/01/16 08:23:43;;;;;;;;;;;;;;;20.17;45.96;101462.66;5025306;28;4058;-63
2022/01/16 08:26:09;;;;;;;;;;;;;;;20.24;45.84;101464.47;5025016;28;4184;-65
2022/01/16 08:28:36;;;;;;;;;;;;;;;20.24;45.80;101458.72;5025361;28;4374;-63
2022/01/16 08:31:02;;;;;;;;;;;;;;;20.13;45.91;101459.53;5025635;28;4245;-63
2022/01/16 08:33:28;;;;;;;;;;;;;;;20.16;46.00;101449.63;5022296;28;4178;-64
2022/01/16 08:35:55;;;;;;;;;;;;;;;20.09;46.00;101449.31;5023863;28;5411;-63
2022/01/16 08:38:22;;;;;;;;;;;;;;;20.20;45.85;101441.25;5026921;28;4113;-63
2022/01/16 08:40:48;;;;;;;;;;;;;;;20.21;45.52;101446.38;5025594;28;4241;-63
2022/01/16 08:43:14;;;;;;;;;;;;;;;20.22;45.28;101438.47;5025686;28;3996;-63
2022/01/16 08:45:41;;;;;;;;;;;;;;;20.24;45.49;101433.59;5024618;28;4249;-64
2022/01/16 08:48:07;;;;;;;;;;;;;;;20.27;45.39;101435.22;5025649;28;4109;-62
2022/01/16 08:50:34;;;;;;;;;;;;;;;20.41;45.32;101428.72;5023265;28;4267;-65
2022/01/16 08:53:00;;;;;;;;;;;;;;;20.39;45.25;101431.53;5027251;28;4097;-63
2022/01/16 08:55:26;;;;;;;;;;;;;;;20.37;45.35;101432.16;5026737;28;4237;-63
2022/01/16 08:57:53;;;;;;;;;;;;;;;20.36;45.29;101422.00;5026816;28;4538;-64
2022/01/16 09:00:19;;;;;;;;;;;;;;;20.36;45.35;101421.28;5028528;28;4286;-63
2022/01/16 09:02:45;;;;;;;;;;;;;;;20.33;45.14;101400.28;5024272;28;4237;-63
2022/01/16 09:05:12;;;;;;;;;;;;;;;20.31;45.29;101408.78;5025876;28;4255;-64
2022/01/16 09:07:38;;;;;;;;;;;;;;;20.32;45.34;101398.03;5027494;28;5351;-63
2022/01/16 09:10:05;;;;;;;;;;;;;;;20.30;45.24;101404.44;5025900;28;4258;-63
2022/01/16 09:12:32;;;;;;;;;;;;;;;20.32;45.18;101404.56;5026052;28;4194;-63
2022/01/16 09:14:58;;;;;;;;;;;;;;;20.32;45.15;101404.56;5024900;28;5219;-63
2022/01/16 09:17:24;;;;;;;;;;;;;;;20.34;45.02;101413.28;5025896;28;4085;-62
2022/01/16 09:19:53;;;;;;;;;;;;;;;20.34;44.93;101424.03;5015347;28;4224;-63
2022/01/16 09:22:19;;;;;;;;;;;;;;;20.40;44.81;101421.50;5024937;28;4164;-62
2022/01/16 09:24:46;;;;;;;;;;;;;;;20.33;44.87;101429.03;5026979;28;4249;-63
2022/01/16 09:27:12;;;;;;;;;;;;;;;20.32;44.65;101418.94;5026140;28;4179;-63
2022/01/16 09:29:38;;;;;;;;;;;;;;;20.27;44.78;101420.06;5023220;28;4149;-63
2022/01/16 09:32:05;;;;;;;;;;;;;;;20.27;44.66;101414.31;5024273;28;4224;-63
2022/01/16 09:34:32;;;;;;;;;;;;;;;20.36;44.45;101410.50;5025976;28;5248;-63
2022/01/16 09:36:58;;;;;;;;;;;;;;;20.27;44.59;101412.22;5026640;28;4177;-63
2022/01/16 09:39:24;;;;;;;;;;;;;;;20.33;44.37;101414.66;5030032;28;4246;-62
2022/01/16 09:41:51;;;;;;;;;;;;;;;20.41;43.95;101417.22;5028102;28;4268;-63
2022/01/16 09:44:17;;;;;;;;;;;;;;;20.43;44.15;101409.47;5030203;28;4236;-63
2022/01/16 09:46:44;;;;;;;;;;;;;;;20.38;43.98;101422.13;5032863;28;4160;-63
2022/01/16 09:49:10;;;;;;;;;;;;;;;20.32;43.84;101436.19;5030192;28;5444;-62
2022/01/16 09:51:36;;;;;;;;;;;;;;;20.36;43.96;101432.78;5032638;28;4317;-62
2022/01/16 09:54:03;;;;;;;;;;;;;;;20.36;43.74;101439.28;5035208;28;4066;-67
2022/01/16 09:56:30;;;;;;;;;;;;;;;20.39;43.93;101431.53;5009058;28;4617;-64
2022/01/16 09:58:56;;;;;;;;;;;;;;;20.35;44.31;101431.28;5030066;28;5105;-63
2022/01/16 10:01:22;;;;;;;;;;;;;;;20.39;44.32;101438.03;5029276;28;4236;-64
2022/01/16 10:03:49;;;;;;;;;;;;;;;20.39;44.27;101455.28;5029381;28;4113;-66
2022/01/16 10:06:21;;;;;;;;;;;;;;;20.42;44.53;101448.25;5033943;28;4245;-68
2022/01/16 10:08:52;;;;;;;;;;;;;;;20.35;44.39;101449.28;5031813;28;4223;-67
2022/01/16 10:11:30;;;;;;;;;;;;;;;20.39;44.54;101449.53;5036073;28;4273;-67
2022/01/16 10:14:00;;;;;;;;;;;;;;;20.43;44.59;101452.63;5034694;28;4219;-68
2022/01/16 10:16:27;;;;;;;;;;;;;;;20.36;44.80;101462.28;5023100;28;4039;-68
2022/01/16 10:18:53;;;;;;;;;;;;;;;20.36;44.86;101456.53;5027142;28;4946;-67
2022/01/16 10:21:36;;;;;;;;;;;;;;;20.41;44.75;101463.25;5022130;28;4094;-66
2022/01/16 10:24:23;;;;;;;;;;;;;;;20.37;44.80;101458.03;5025411;28;4073;-66
2022/01/16 10:27:12;;;;;;;;;;;;;;;20.37;44.95;101452.28;5027602;28;4169;-68
2022/01/16 10:29:40;;;;;;;;;;;;;;;20.21;45.25;101452.13;5029074;28;4229;-69
2022/01/16 10:32:13;;;;;;;;;;;;;;;20.39;44.83;101461.03;5032190;28;5765;-70
2022/01/16 10:34:40;;;;;;;;;;;;;;;20.32;44.90;101467.84;5033488;28;4243;-67
2022/01/16 10:37:23;;;;;;;;;;;;;;;20.38;44.86;101471.03;5030927;28;4236;-67
2022/01/16 10:39:57;;;;;;;;;;;;;;;20.36;44.73;101473.78;5029714;28;4558;-66
2022/01/16 10:42:24;;;;;;;;;;;;;;;20.32;45.07;101472.81;5030723;28;4583;-67
2022/01/16 10:45:09;;;;;;;;;;;;;;;20.30;45.00;101459.09;5025534;28;5293;-66
2022/01/16 10:47:36;;;;;;;;;;;;;;;20.28;45.08;101456.84;5015444;28;4231;-68
2022/01/16 10:50:04;;;;;;;;;;;;;;;20.38;44.98;101453.03;5040523;28;4699;-68
2022/01/16 10:52:31;;;;;;;;;;;;;;;20.40;44.92;101445.25;5036932;28;4117;-68
2022/01/16 10:55:04;;;;;;;;;;;;;;;20.36;45.22;101433.50;5036800;28;5287;-64
2022/01/16 10:57:31;;;;;;;;;;;;;;;20.32;45.28;101432.53;5033422;28;4177;-67
2022/01/16 11:00:06;;;;;;;;;;;;;;;20.30;45.52;101425.31;5032080;28;4068;-66
2022/01/16 11:02:33;;;;;;;;;;;;;;;20.29;45.57;101420.19;5031102;28;5348;-66
2022/01/16 11:05:09;;;;;;;;;;;;;;;20.35;45.74;101428.41;5031466;28;4173;-66
2022/01/16 11:07:36;;;;;;;;;;;;;;;20.35;46.07;101426.28;5050798;28;4279;-66
2022/01/16 11:10:21;;;;;;;;;;;;;;;20.43;45.98;101418.13;5037182;28;4349;-67
2022/01/16 11:12:49;;;;;;;;;;;;;;;20.40;46.47;101424.38;5036654;28;4197;-67
2022/01/16 11:15:16;;;;;;;;;;;;;;;20.39;46.45;101432.25;5035207;28;4182;-68
2022/01/16 11:17:42;;;;;;;;;;;;;;;20.37;46.61;101435.03;5020943;28;4095;-67
2022/01/16 11:20:09;;;;;;;;;;;;;;;20.43;46.80;101426.75;5036647;28;4439;-72
2022/01/16 11:22:56;;;;;;;;;;;;;;;20.43;46.92;101441.13;5037880;28;4162;-70
2022/01/16 11:25:31;;;;;;;;;;;;;;;20.47;46.84;101438.44;5021485;28;4355;-66
2022/01/16 11:27:58;;;;;;;;;;;;;;;20.51;47.10;101430.06;5035673;28;4251;-67
2022/01/16 11:30:24;;;;;;;;;;;;;;;20.63;46.72;101440.75;5018931;28;4188;-66
2022/01/16 11:32:51;;;;;;;;;;;;;;;20.67;46.68;101438.13;5032663;28;4257;-62
2022/01/16 11:35:17;;;;;;;;;;;;;;;20.58;46.33;101447.69;5037276;28;3978;-63
2022/01/16 11:37:43;;;;;;;;;;;;;;;20.43;47.11;101444.00;5036666;28;4198;-63
2022/01/16 11:40:27;;;;;;;;;;;;;;;20.42;46.53;101439.63;5028603;28;4015;-69
2022/01/16 11:43:10;;;;;;;;;;;;;;;20.55;44.55;101437.41;5035941;28;5762;-69
2022/01/16 11:45:52;;;;;;;;;;;;;;;20.57;44.14;101434.66;5035961;28;4180;-68
2022/01/16 11:48:19;;;;;;;;;;;;;;;20.57;43.11;101435.44;5036076;28;4153;-68
2022/01/16 11:50:46;;;;;;;;;;;;;;;20.33;44.01;101440.56;5034237;28;4218;-65
2022/01/16 11:53:32;;;;;;;;;;;;;;;20.27;45.83;101428.69;5038190;28;4147;-63
2022/01/16 11:55:58;;;;;;;;;;;;;;;20.28;45.14;101433.09;5036201;28;5660;-64
2022/01/16 11:58:25;;;;;;;;;;;;;;;20.16;43.70;101436.03;5020103;28;4315;-64
2022/01/16 12:00:51;;;;;;;;;;;;;;;20.29;45.01;101423.06;5016234;28;5352;-64
2022/01/16 12:03:34;;;;;;;;;;;;;;;20.22;44.68;101435.59;5029720;28;4212;-63
2022/01/16 12:06:19;;;;;;;;;;;;;;;20.19;44.96;101425.38;5030918;28;4267;-65
2022/01/16 12:08:46;;;;;;;;;;;;;;;20.28;42.89;101427.34;5031180;28;4306;-62
2022/01/16 12:11:34;;;;;;;;;;;;;;;20.07;44.32;101425.44;5037512;28;5613;-63
2022/01/16 12:14:01;;;;;;;;;;;;;;;20.09;44.26;101432.06;5035682;28;4131;-64
2022/01/16 12:16:33;;;;;;;;;;;;;;;20.26;44.18;101419.31;5033862;28;4634;-66
2022/01/16 12:19:18;;;;;;;;;;;;;;;20.00;44.52;101415.72;5044995;28;4263;-64
2022/01/16 12:21:53;;;;;;;;;;;;;;;20.13;44.58;101413.53;5029933;28;5447;-63
2022/01/16 12:24:39;;;;;;;;;;;;;;;20.26;44.41;101413.56;5034744;28;4070;-64
2022/01/16 12:27:24;;;;;;;;;;;;;;;20.40;44.59;101422.25;5033003;28;4231;-63
2022/01/16 12:30:09;;;;;;;;;;;;;;;20.41;44.77;101418.00;5030801;28;4300;-63
2022/01/16 12:32:54;;;;;;;;;;;;;;;20.37;45.03;101429.28;5033148;28;4245;-63
2022/01/16 12:35:50;;;;;;;;;;;;;;;20.31;45.39;101420.31;5032197;28;4259;-63
2022/01/16 12:38:17;;;;;;;;;;;;;;;20.27;45.54;101417.97;5021568;28;4245;-63
2022/01/16 12:40:44;;;;;;;;;;;;;;;20.32;45.43;101416.06;5031357;28;4188;-64
2022/01/16 12:43:15;;;;;;;;;;;;;;;20.37;45.58;101406.25;5030844;28;4262;-63
2022/01/16 12:45:42;;;;;;;;;;;;;;;20.30;45.74;101405.19;5033177;28;4354;-63
2022/01/16 12:48:09;;;;;;;;;;;;;;;20.30;45.55;101402.31;5035423;28;4352;-63
2022/01/16 12:50:35;;;;;;;;;;;;;;;20.37;45.55;101403.38;5034962;28;4409;-63
2022/01/16 12:53:02;;;;;;;;;;;;;;;20.35;45.57;101403.28;5032500;28;5564;-64
2022/01/16 12:55:29;;;;;;;;;;;;;;;20.47;45.62;101406.06;5031569;28;4183;-65
2022/01/16 12:58:13;;;;;;;;;;;;;;;20.43;46.08;101395.09;5033731;28;5340;-64
2022/01/16 13:00:56;;;;;;;;;;;;;;;20.32;46.32;101389.41;5026774;28;5273;-65
2022/01/16 13:03:23;;;;;;;;;;;;;;;20.35;46.26;101397.53;5029374;28;4169;-62
2022/01/16 13:05:49;;;;;;;;;;;;;;;20.43;46.58;101391.47;5027192;28;4207;-61
2022/01/16 13:08:28;;;;;;;;;;;;;;;20.29;46.60;101391.44;5015121;28;4247;-61
2022/01/16 13:11:12;;;;;;;;;;;;;;;20.26;46.45;101389.81;5034962;28;4250;-61
2022/01/16 13:13:38;;;;;;;;;;;;;;;20.25;46.38;101394.09;5032866;28;4076;-61
2022/01/16 13:16:18;;;;;;;;;;;;;;;20.32;46.28;101390.16;5014518;28;4236;-61
2022/01/16 13:18:57;;;;;;;;;;;;;;;20.25;46.16;101394.84;5030819;28;4271;-61
2022/01/16 13:21:32;;;;;;;;;;;;;;;20.27;46.05;101392.06;5032207;28;4024;-61
2022/01/16 13:23:58;;;;;;;;;;;;;;;20.26;46.12;101384.81;5030256;28;4125;-61
2022/01/16 13:26:25;;;;;;;;;;;;;;;20.31;46.01;101382.91;5031822;28;4423;-61
2022/01/16 13:29:01;;;;;;;;;;;;;;;20.36;45.97;101376.00;5032677;28;4189;-61
2022/01/16 13:31:36;;;;;;;;;;;;;;;20.33;46.02;101385.91;5027279;28;5672;-61
2022/01/16 13:34:25;;;;;;;;;;;;;;;20.29;45.97;101382.78;5031827;28;4079;-61